sensor_id;sensor_type;location;lat;lon;timestamp;temperature;humidity
71206;SHT31;58935;54.498;18.544;2022-12-17T00:00:42;1.89;77.41
71206;SHT31;58935;54.498;18.544;2022-12-17T00:03:11;1.90;77.42
71206;SHT31;58935;54.498;18.544;2022-12-17T00:05:39;1.91;77.48
71206;SHT31;58935;54.498;18.544;2022-12-17T00:08:08;1.91;77.44
71206;SHT31;58935;54.498;18.544;2022-12-17T00:10:36;1.92;77.35
71206;SHT31;58935;54.498;18.544;2022-12-17T00:13:04;1.91;77.19
71206;SHT31;58935;54.498;18.544;2022-12-17T00:15:49;1.89;77.25
71206;SHT31;58935;54.498;18.544;2022-12-17T00:18:19;1.86;77.26
71206;SHT31;58935;54.498;18.544;2022-12-17T00:23:20;1.74;77.13
71206;SHT31;58935;54.498;18.544;2022-12-17T00:25:50;1.72;77.64
71206;SHT31;58935;54.498;18.544;2022-12-17T00:28:20;1.73;77.70
71206;SHT31;58935;54.498;18.544;2022-12-17T00:30:50;1.74;77.61
71206;SHT31;58935;54.498;18.544;2022-12-17T00:33:19;1.76;77.60
71206;SHT31;58935;54.498;18.544;2022-12-17T00:35:50;1.77;77.45
71206;SHT31;58935;54.498;18.544;2022-12-17T00:38:21;1.75;77.34
71206;SHT31;58935;54.498;18.544;2022-12-17T00:40:51;1.75;77.65
71206;SHT31;58935;54.498;18.544;2022-12-17T00:43:20;1.78;77.80
71206;SHT31;58935;54.498;18.544;2022-12-17T00:45:48;1.83;77.75
71206;SHT31;58935;54.498;18.544;2022-12-17T00:48:17;1.85;77.58
71206;SHT31;58935;54.498;18.544;2022-12-17T00:50:46;1.86;77.32
71206;SHT31;58935;54.498;18.544;2022-12-17T00:53:14;1.85;77.26
71206;SHT31;58935;54.498;18.544;2022-12-17T00:55:42;1.82;77.23
71206;SHT31;58935;54.498;18.544;2022-12-17T00:58:10;1.80;77.36
71206;SHT31;58935;54.498;18.544;2022-12-17T01:00:41;1.81;77.50
71206;SHT31;58935;54.498;18.544;2022-12-17T01:03:10;1.80;77.49
71206;SHT31;58935;54.498;18.544;2022-12-17T01:05:39;1.80;77.62
71206;SHT31;58935;54.498;18.544;2022-12-17T01:08:08;1.82;77.64
71206;SHT31;58935;54.498;18.544;2022-12-17T01:10:39;1.80;77.29
71206;SHT31;58935;54.498;18.544;2022-12-17T01:13:12;1.76;77.46
71206;SHT31;58935;54.498;18.544;2022-12-17T01:15:42;1.77;77.69
71206;SHT31;58935;54.498;18.544;2022-12-17T01:18:15;1.76;77.86
71206;SHT31;58935;54.498;18.544;2022-12-17T01:20:44;1.67;78.39
71206;SHT31;58935;54.498;18.544;2022-12-17T01:23:12;1.56;78.92
71206;SHT31;58935;54.498;18.544;2022-12-17T01:25:50;1.44;79.33
71206;SHT31;58935;54.498;18.544;2022-12-17T01:28:22;1.37;79.64
71206;SHT31;58935;54.498;18.544;2022-12-17T01:30:51;1.32;79.84
71206;SHT31;58935;54.498;18.544;2022-12-17T01:33:19;1.29;80.06
71206;SHT31;58935;54.498;18.544;2022-12-17T01:35:48;1.30;80.18
71206;SHT31;58935;54.498;18.544;2022-12-17T01:38:17;1.30;80.15
71206;SHT31;58935;54.498;18.544;2022-12-17T01:45:58;1.22;80.13
71206;SHT31;58935;54.498;18.544;2022-12-17T01:48:28;1.17;80.12
71206;SHT31;58935;54.498;18.544;2022-12-17T01:50:59;1.14;80.25
71206;SHT31;58935;54.498;18.544;2022-12-17T01:53:30;1.07;80.37
71206;SHT31;58935;54.498;18.544;2022-12-17T01:56:01;1.02;80.67
71206;SHT31;58935;54.498;18.544;2022-12-17T01:58:30;0.94;80.75
71206;SHT31;58935;54.498;18.544;2022-12-17T02:00:59;0.91;80.87
71206;SHT31;58935;54.498;18.544;2022-12-17T02:03:27;0.93;81.19
71206;SHT31;58935;54.498;18.544;2022-12-17T02:06:06;0.96;81.11
71206;SHT31;58935;54.498;18.544;2022-12-17T02:14:26;0.99;81.01
71206;SHT31;58935;54.498;18.544;2022-12-17T02:17:15;0.99;80.84
71206;SHT31;58935;54.498;18.544;2022-12-17T02:19:57;1.03;80.87
71206;SHT31;58935;54.498;18.544;2022-12-17T02:25:17;0.99;80.73
71206;SHT31;58935;54.498;18.544;2022-12-17T02:27:53;0.92;80.73
71206;SHT31;58935;54.498;18.544;2022-12-17T02:30:24;0.85;80.84
71206;SHT31;58935;54.498;18.544;2022-12-17T02:32:53;0.78;80.89
71206;SHT31;58935;54.498;18.544;2022-12-17T02:35:23;0.76;81.07
71206;SHT31;58935;54.498;18.544;2022-12-17T02:37:54;0.80;81.13
71206;SHT31;58935;54.498;18.544;2022-12-17T02:40:23;0.81;81.13
71206;SHT31;58935;54.498;18.544;2022-12-17T02:42:54;0.83;81.08
71206;SHT31;58935;54.498;18.544;2022-12-17T02:45:25;0.85;81.06
71206;SHT31;58935;54.498;18.544;2022-12-17T02:47:56;0.87;81.10
71206;SHT31;58935;54.498;18.544;2022-12-17T02:50:25;0.87;80.90
71206;SHT31;58935;54.498;18.544;2022-12-17T02:52:53;0.88;80.92
71206;SHT31;58935;54.498;18.544;2022-12-17T02:55:25;0.89;80.67
71206;SHT31;58935;54.498;18.544;2022-12-17T02:57:53;0.90;80.61
71206;SHT31;58935;54.498;18.544;2022-12-17T03:00:24;0.93;80.56
71206;SHT31;58935;54.498;18.544;2022-12-17T03:02:54;0.97;80.75
71206;SHT31;58935;54.498;18.544;2022-12-17T03:05:25;1.02;80.72
71206;SHT31;58935;54.498;18.544;2022-12-17T03:07:53;1.03;80.47
71206;SHT31;58935;54.498;18.544;2022-12-17T03:10:22;0.99;80.09
71206;SHT31;58935;54.498;18.544;2022-12-17T03:12:50;0.91;80.18
71206;SHT31;58935;54.498;18.544;2022-12-17T03:15:18;0.86;80.25
71206;SHT31;58935;54.498;18.544;2022-12-17T03:17:46;0.85;80.18
71206;SHT31;58935;54.498;18.544;2022-12-17T03:20:15;0.87;80.20
71206;SHT31;58935;54.498;18.544;2022-12-17T03:22:45;0.90;79.91
71206;SHT31;58935;54.498;18.544;2022-12-17T03:25:14;0.92;80.10
71206;SHT31;58935;54.498;18.544;2022-12-17T03:27:42;0.99;80.10
71206;SHT31;58935;54.498;18.544;2022-12-17T03:30:10;1.06;79.99
71206;SHT31;58935;54.498;18.544;2022-12-17T03:32:41;1.11;79.69
71206;SHT31;58935;54.498;18.544;2022-12-17T03:35:09;1.07;79.10
71206;SHT31;58935;54.498;18.544;2022-12-17T03:37:37;1.03;79.07
71206;SHT31;58935;54.498;18.544;2022-12-17T03:40:06;1.00;78.98
71206;SHT31;58935;54.498;18.544;2022-12-17T03:42:34;0.98;78.96
71206;SHT31;58935;54.498;18.544;2022-12-17T03:45:03;0.96;78.92
71206;SHT31;58935;54.498;18.544;2022-12-17T03:47:31;0.88;78.94
71206;SHT31;58935;54.498;18.544;2022-12-17T03:50:00;0.75;79.10
71206;SHT31;58935;54.498;18.544;2022-12-17T03:52:28;0.64;79.42
71206;SHT31;58935;54.498;18.544;2022-12-17T03:54:59;0.56;79.62
71206;SHT31;58935;54.498;18.544;2022-12-17T03:57:27;0.56;79.85
71206;SHT31;58935;54.498;18.544;2022-12-17T03:59:55;0.56;79.88
71206;SHT31;58935;54.498;18.544;2022-12-17T04:02:23;0.58;79.96
71206;SHT31;58935;54.498;18.544;2022-12-17T04:04:52;0.59;79.89
71206;SHT31;58935;54.498;18.544;2022-12-17T04:07:20;0.60;79.82
71206;SHT31;58935;54.498;18.544;2022-12-17T04:09:48;0.58;79.59
71206;SHT31;58935;54.498;18.544;2022-12-17T04:12:19;0.53;79.46
71206;SHT31;58935;54.498;18.544;2022-12-17T04:14:47;0.50;79.62
71206;SHT31;58935;54.498;18.544;2022-12-17T04:17:15;0.50;79.57
71206;SHT31;58935;54.498;18.544;2022-12-17T04:19:46;0.49;79.55
71206;SHT31;58935;54.498;18.544;2022-12-17T04:22:14;0.45;79.56
71206;SHT31;58935;54.498;18.544;2022-12-17T04:24:42;0.43;79.77
71206;SHT31;58935;54.498;18.544;2022-12-17T04:27:11;0.35;79.50
71206;SHT31;58935;54.498;18.544;2022-12-17T04:29:39;0.25;79.57
71206;SHT31;58935;54.498;18.544;2022-12-17T04:32:07;0.22;79.71
71206;SHT31;58935;54.498;18.544;2022-12-17T04:34:35;0.19;79.76
71206;SHT31;58935;54.498;18.544;2022-12-17T04:37:04;0.18;80.01
71206;SHT31;58935;54.498;18.544;2022-12-17T04:39:32;0.17;79.93
71206;SHT31;58935;54.498;18.544;2022-12-17T04:42:00;0.18;80.03
71206;SHT31;58935;54.498;18.544;2022-12-17T04:44:28;0.15;79.90
71206;SHT31;58935;54.498;18.544;2022-12-17T04:46:57;0.12;79.87
71206;SHT31;58935;54.498;18.544;2022-12-17T04:49:25;0.07;79.80
71206;SHT31;58935;54.498;18.544;2022-12-17T04:51:53;0.04;79.85
71206;SHT31;58935;54.498;18.544;2022-12-17T04:54:22;0.02;79.64
71206;SHT31;58935;54.498;18.544;2022-12-17T04:56:50;-0.01;79.79
71206;SHT31;58935;54.498;18.544;2022-12-17T04:59:21;0.00;79.69
71206;SHT31;58935;54.498;18.544;2022-12-17T05:01:49;0.03;79.81
71206;SHT31;58935;54.498;18.544;2022-12-17T05:04:17;0.10;79.67
71206;SHT31;58935;54.498;18.544;2022-12-17T05:06:45;0.10;79.42
71206;SHT31;58935;54.498;18.544;2022-12-17T05:09:14;0.09;79.29
71206;SHT31;58935;54.498;18.544;2022-12-17T05:11:47;0.16;79.46
71206;SHT31;58935;54.498;18.544;2022-12-17T05:14:15;0.21;78.98
71206;SHT31;58935;54.498;18.544;2022-12-17T05:16:44;0.18;78.79
71206;SHT31;58935;54.498;18.544;2022-12-17T05:19:12;0.17;78.93
71206;SHT31;58935;54.498;18.544;2022-12-17T05:21:40;0.20;79.08
71206;SHT31;58935;54.498;18.544;2022-12-17T05:24:09;0.21;78.84
71206;SHT31;58935;54.498;18.544;2022-12-17T05:26:37;0.23;78.97
71206;SHT31;58935;54.498;18.544;2022-12-17T05:29:05;0.23;78.61
71206;SHT31;58935;54.498;18.544;2022-12-17T05:31:34;0.19;78.35
71206;SHT31;58935;54.498;18.544;2022-12-17T05:34:02;0.21;78.48
71206;SHT31;58935;54.498;18.544;2022-12-17T05:36:30;0.28;78.56
71206;SHT31;58935;54.498;18.544;2022-12-17T05:38:59;0.34;78.44
71206;SHT31;58935;54.498;18.544;2022-12-17T05:41:46;0.41;78.38
71206;SHT31;58935;54.498;18.544;2022-12-17T05:44:14;0.40;78.04
71206;SHT31;58935;54.498;18.544;2022-12-17T05:46:43;0.41;78.06
71206;SHT31;58935;54.498;18.544;2022-12-17T05:49:11;0.41;77.99
71206;SHT31;58935;54.498;18.544;2022-12-17T05:51:39;0.41;77.96
71206;SHT31;58935;54.498;18.544;2022-12-17T05:54:10;0.44;77.96
71206;SHT31;58935;54.498;18.544;2022-12-17T05:56:41;0.47;78.10
71206;SHT31;58935;54.498;18.544;2022-12-17T05:59:09;0.51;77.89
71206;SHT31;58935;54.498;18.544;2022-12-17T06:01:40;0.50;77.61
71206;SHT31;58935;54.498;18.544;2022-12-17T06:04:08;0.49;77.70
71206;SHT31;58935;54.498;18.544;2022-12-17T06:06:37;0.51;77.73
71206;SHT31;58935;54.498;18.544;2022-12-17T06:09:05;0.53;77.71
71206;SHT31;58935;54.498;18.544;2022-12-17T06:11:33;0.54;77.56
71206;SHT31;58935;54.498;18.544;2022-12-17T06:14:19;0.53;77.53
71206;SHT31;58935;54.498;18.544;2022-12-17T06:16:47;0.57;77.71
71206;SHT31;58935;54.498;18.544;2022-12-17T06:19:15;0.66;77.59
71206;SHT31;58935;54.498;18.544;2022-12-17T06:21:43;0.74;77.46
71206;SHT31;58935;54.498;18.544;2022-12-17T06:24:12;0.83;77.26
71206;SHT31;58935;54.498;18.544;2022-12-17T06:26:40;0.87;77.05
71206;SHT31;58935;54.498;18.544;2022-12-17T06:29:08;0.87;76.67
71206;SHT31;58935;54.498;18.544;2022-12-17T06:31:37;0.85;76.58
71206;SHT31;58935;54.498;18.544;2022-12-17T06:34:05;0.83;76.54
71206;SHT31;58935;54.498;18.544;2022-12-17T06:36:33;0.79;76.32
71206;SHT31;58935;54.498;18.544;2022-12-17T06:39:01;0.78;76.58
71206;SHT31;58935;54.498;18.544;2022-12-17T06:41:30;0.79;76.69
71206;SHT31;58935;54.498;18.544;2022-12-17T06:43:59;0.78;76.51
71206;SHT31;58935;54.498;18.544;2022-12-17T06:46:27;0.77;76.54
71206;SHT31;58935;54.498;18.544;2022-12-17T06:48:55;0.75;76.49
71206;SHT31;58935;54.498;18.544;2022-12-17T06:51:23;0.72;76.46
71206;SHT31;58935;54.498;18.544;2022-12-17T06:53:52;0.69;76.46
71206;SHT31;58935;54.498;18.544;2022-12-17T06:56:20;0.68;76.46
71206;SHT31;58935;54.498;18.544;2022-12-17T06:58:51;0.68;76.53
71206;SHT31;58935;54.498;18.544;2022-12-17T07:01:21;0.70;76.70
71206;SHT31;58935;54.498;18.544;2022-12-17T07:03:49;0.72;76.69
71206;SHT31;58935;54.498;18.544;2022-12-17T07:06:20;0.73;76.61
71206;SHT31;58935;54.498;18.544;2022-12-17T07:08:48;0.73;76.55
71206;SHT31;58935;54.498;18.544;2022-12-17T07:11:17;0.69;76.59
71206;SHT31;58935;54.498;18.544;2022-12-17T07:13:45;0.68;76.75
71206;SHT31;58935;54.498;18.544;2022-12-17T07:16:14;0.68;76.88
71206;SHT31;58935;54.498;18.544;2022-12-17T07:18:42;0.66;76.74
71206;SHT31;58935;54.498;18.544;2022-12-17T07:21:10;0.61;76.91
71206;SHT31;58935;54.498;18.544;2022-12-17T07:23:41;0.61;76.96
71206;SHT31;58935;54.498;18.544;2022-12-17T07:26:09;0.65;77.20
71206;SHT31;58935;54.498;18.544;2022-12-17T07:28:37;0.73;77.20
71206;SHT31;58935;54.498;18.544;2022-12-17T07:31:06;0.74;76.94
71206;SHT31;58935;54.498;18.544;2022-12-17T07:33:34;0.74;77.02
71206;SHT31;58935;54.498;18.544;2022-12-17T07:36:02;0.73;77.00
71206;SHT31;58935;54.498;18.544;2022-12-17T07:38:31;0.72;77.16
71206;SHT31;58935;54.498;18.544;2022-12-17T07:41:00;0.76;77.31
71206;SHT31;58935;54.498;18.544;2022-12-17T07:43:28;0.79;77.28
71206;SHT31;58935;54.498;18.544;2022-12-17T07:45:56;0.81;77.29
71206;SHT31;58935;54.498;18.544;2022-12-17T07:48:24;0.85;77.21
71206;SHT31;58935;54.498;18.544;2022-12-17T07:50:53;0.88;77.15
71206;SHT31;58935;54.498;18.544;2022-12-17T07:53:21;0.87;76.92
71206;SHT31;58935;54.498;18.544;2022-12-17T07:55:50;0.85;77.04
71206;SHT31;58935;54.498;18.544;2022-12-17T07:58:19;0.90;77.12
71206;SHT31;58935;54.498;18.544;2022-12-17T08:00:47;0.96;77.03
71206;SHT31;58935;54.498;18.544;2022-12-17T08:03:15;0.99;76.85
71206;SHT31;58935;54.498;18.544;2022-12-17T08:05:43;1.01;76.87
71206;SHT31;58935;54.498;18.544;2022-12-17T08:08:13;1.04;76.86
71206;SHT31;58935;54.498;18.544;2022-12-17T08:10:41;1.07;76.85
71206;SHT31;58935;54.498;18.544;2022-12-17T08:13:12;1.13;76.90
71206;SHT31;58935;54.498;18.544;2022-12-17T08:15:40;1.18;76.73
71206;SHT31;58935;54.498;18.544;2022-12-17T08:18:08;1.20;76.56
71206;SHT31;58935;54.498;18.544;2022-12-17T08:20:37;1.22;76.50
71206;SHT31;58935;54.498;18.544;2022-12-17T08:23:05;1.23;76.47
71206;SHT31;58935;54.498;18.544;2022-12-17T08:25:33;1.21;76.31
71206;SHT31;58935;54.498;18.544;2022-12-17T08:28:04;1.17;76.26
71206;SHT31;58935;54.498;18.544;2022-12-17T08:30:32;1.13;76.40
71206;SHT31;58935;54.498;18.544;2022-12-17T08:33:01;1.17;76.50
71206;SHT31;58935;54.498;18.544;2022-12-17T08:35:30;1.21;76.45
71206;SHT31;58935;54.498;18.544;2022-12-17T08:37:59;1.24;76.42
71206;SHT31;58935;54.498;18.544;2022-12-17T08:40:46;1.28;76.26
71206;SHT31;58935;54.498;18.544;2022-12-17T08:43:15;1.31;76.15
71206;SHT31;58935;54.498;18.544;2022-12-17T08:45:45;1.36;76.13
71206;SHT31;58935;54.498;18.544;2022-12-17T08:48:14;1.40;75.83
71206;SHT31;58935;54.498;18.544;2022-12-17T08:50:43;1.37;75.62
71206;SHT31;58935;54.498;18.544;2022-12-17T08:53:13;1.35;75.62
71206;SHT31;58935;54.498;18.544;2022-12-17T08:55:42;1.32;75.53
71206;SHT31;58935;54.498;18.544;2022-12-17T08:58:10;1.28;75.67
71206;SHT31;58935;54.498;18.544;2022-12-17T09:00:38;1.27;75.70
71206;SHT31;58935;54.498;18.544;2022-12-17T09:03:07;1.23;75.61
71206;SHT31;58935;54.498;18.544;2022-12-17T09:05:36;1.19;75.70
71206;SHT31;58935;54.498;18.544;2022-12-17T09:08:05;1.19;75.85
71206;SHT31;58935;54.498;18.544;2022-12-17T09:10:33;1.26;76.05
71206;SHT31;58935;54.498;18.544;2022-12-17T09:13:04;1.30;75.87
71206;SHT31;58935;54.498;18.544;2022-12-17T09:15:32;1.35;75.76
71206;SHT31;58935;54.498;18.544;2022-12-17T09:18:01;1.41;75.83
71206;SHT31;58935;54.498;18.544;2022-12-17T09:20:29;1.46;75.70
71206;SHT31;58935;54.498;18.544;2022-12-17T09:22:57;1.53;75.59
71206;SHT31;58935;54.498;18.544;2022-12-17T09:25:25;1.56;75.43
71206;SHT31;58935;54.498;18.544;2022-12-17T09:27:58;1.60;75.43
71206;SHT31;58935;54.498;18.544;2022-12-17T09:30:27;1.67;75.45
71206;SHT31;58935;54.498;18.544;2022-12-17T09:32:55;1.73;75.23
71206;SHT31;58935;54.498;18.544;2022-12-17T09:35:23;1.77;75.06
71206;SHT31;58935;54.498;18.544;2022-12-17T09:37:52;1.80;74.85
71206;SHT31;58935;54.498;18.544;2022-12-17T09:40:22;1.85;74.86
71206;SHT31;58935;54.498;18.544;2022-12-17T09:42:55;1.91;74.57
71206;SHT31;58935;54.498;18.544;2022-12-17T09:50:38;2.09;74.20
71206;SHT31;58935;54.498;18.544;2022-12-17T09:53:12;2.11;74.02
71206;SHT31;58935;54.498;18.544;2022-12-17T09:55:48;2.13;73.94
71206;SHT31;58935;54.498;18.544;2022-12-17T09:58:19;2.11;73.82
71206;SHT31;58935;54.498;18.544;2022-12-17T10:00:50;2.11;73.90
71206;SHT31;58935;54.498;18.544;2022-12-17T10:03:20;2.15;73.90
71206;SHT31;58935;54.498;18.544;2022-12-17T10:05:50;2.16;73.77
71206;SHT31;58935;54.498;18.544;2022-12-17T10:08:19;2.14;73.66
71206;SHT31;58935;54.498;18.544;2022-12-17T10:10:48;2.13;73.73
71206;SHT31;58935;54.498;18.544;2022-12-17T10:13:17;2.12;73.65
71206;SHT31;58935;54.498;18.544;2022-12-17T10:15:48;2.13;73.67
71206;SHT31;58935;54.498;18.544;2022-12-17T10:18:17;2.16;73.61
71206;SHT31;58935;54.498;18.544;2022-12-17T10:20:46;2.18;73.66
71206;SHT31;58935;54.498;18.544;2022-12-17T10:23:26;2.21;73.58
71206;SHT31;58935;54.498;18.544;2022-12-17T10:25:56;2.22;73.48
71206;SHT31;58935;54.498;18.544;2022-12-17T10:28:26;2.25;73.41
71206;SHT31;58935;54.498;18.544;2022-12-17T10:30:59;2.28;73.24
71206;SHT31;58935;54.498;18.544;2022-12-17T10:33:28;2.26;73.06
71206;SHT31;58935;54.498;18.544;2022-12-17T10:36:05;2.21;72.94
71206;SHT31;58935;54.498;18.544;2022-12-17T10:41:24;2.17;73.19
71206;SHT31;58935;54.498;18.544;2022-12-17T10:43:56;2.24;73.27
71206;SHT31;58935;54.498;18.544;2022-12-17T10:46:27;2.30;73.03
71206;SHT31;58935;54.498;18.544;2022-12-17T10:51:32;2.38;73.03
71206;SHT31;58935;54.498;18.544;2022-12-17T10:54:05;2.43;72.97
71206;SHT31;58935;54.498;18.544;2022-12-17T10:56:39;2.43;72.84
71206;SHT31;58935;54.498;18.544;2022-12-17T11:01:40;2.48;72.51
71206;SHT31;58935;54.498;18.544;2022-12-17T11:04:20;2.44;72.47
71206;SHT31;58935;54.498;18.544;2022-12-17T11:07:14;2.46;72.68
71206;SHT31;58935;54.498;18.544;2022-12-17T11:09:48;2.53;72.53
71206;SHT31;58935;54.498;18.544;2022-12-17T11:12:22;2.56;72.43
71206;SHT31;58935;54.498;18.544;2022-12-17T11:14:56;2.59;72.26
71206;SHT31;58935;54.498;18.544;2022-12-17T11:17:27;2.60;72.27
71206;SHT31;58935;54.498;18.544;2022-12-17T11:19:57;2.61;72.29
71206;SHT31;58935;54.498;18.544;2022-12-17T11:22:33;2.57;71.76
71206;SHT31;58935;54.498;18.544;2022-12-17T11:27:49;2.49;71.94
71206;SHT31;58935;54.498;18.544;2022-12-17T11:30:30;2.54;72.07
71206;SHT31;58935;54.498;18.544;2022-12-17T11:33:11;2.54;71.61
71206;SHT31;58935;54.498;18.544;2022-12-17T11:35:53;2.54;71.91
71206;SHT31;58935;54.498;18.544;2022-12-17T11:38:31;2.58;71.86
71206;SHT31;58935;54.498;18.544;2022-12-17T11:43:49;2.65;71.88
71206;SHT31;58935;54.498;18.544;2022-12-17T11:46:28;2.70;71.72
71206;SHT31;58935;54.498;18.544;2022-12-17T11:49:11;2.73;71.57
71206;SHT31;58935;54.498;18.544;2022-12-17T11:51:48;2.79;71.50
71206;SHT31;58935;54.498;18.544;2022-12-17T11:54:31;2.79;71.23
71206;SHT31;58935;54.498;18.544;2022-12-17T11:57:17;2.80;71.04
71206;SHT31;58935;54.498;18.544;2022-12-17T12:00:01;2.84;70.78
71206;SHT31;58935;54.498;18.544;2022-12-17T12:02:43;2.86;70.52
71206;SHT31;58935;54.498;18.544;2022-12-17T12:05:36;2.85;70.69
71206;SHT31;58935;54.498;18.544;2022-12-17T12:08:17;2.91;70.83
71206;SHT31;58935;54.498;18.544;2022-12-17T12:11:11;2.97;70.80
71206;SHT31;58935;54.498;18.544;2022-12-17T12:13:46;3.01;70.75
71206;SHT31;58935;54.498;18.544;2022-12-17T12:16:32;3.04;70.76
71206;SHT31;58935;54.498;18.544;2022-12-17T12:19:16;3.06;70.40
71206;SHT31;58935;54.498;18.544;2022-12-17T12:27:03;3.03;70.38
71206;SHT31;58935;54.498;18.544;2022-12-17T12:29:52;2.99;70.40
71206;SHT31;58935;54.498;18.544;2022-12-17T12:32:39;2.93;70.58
71206;SHT31;58935;54.498;18.544;2022-12-17T12:35:20;2.91;70.80
71206;SHT31;58935;54.498;18.544;2022-12-17T12:37:53;2.92;70.86
71206;SHT31;58935;54.498;18.544;2022-12-17T12:42:59;2.84;70.83
71206;SHT31;58935;54.498;18.544;2022-12-17T12:48:42;2.76;70.83
71206;SHT31;58935;54.498;18.544;2022-12-17T12:51:17;2.75;70.91
71206;SHT31;58935;54.498;18.544;2022-12-17T12:56:26;2.72;71.13
71206;SHT31;58935;54.498;18.544;2022-12-17T12:59:20;2.71;71.04
71206;SHT31;58935;54.498;18.544;2022-12-17T13:01:52;2.69;71.09
71206;SHT31;58935;54.498;18.544;2022-12-17T13:04:38;2.63;71.00
71206;SHT31;58935;54.498;18.544;2022-12-17T13:07:17;2.58;71.04
71206;SHT31;58935;54.498;18.544;2022-12-17T13:09:46;2.52;71.17
71206;SHT31;58935;54.498;18.544;2022-12-17T13:12:17;2.50;71.30
71206;SHT31;58935;54.498;18.544;2022-12-17T13:14:47;2.49;71.34
71206;SHT31;58935;54.498;18.544;2022-12-17T13:19:59;2.49;71.49
71206;SHT31;58935;54.498;18.544;2022-12-17T13:22:28;2.48;71.44
71206;SHT31;58935;54.498;18.544;2022-12-17T13:25:14;2.49;71.43
71206;SHT31;58935;54.498;18.544;2022-12-17T13:27:50;2.48;71.50
71206;SHT31;58935;54.498;18.544;2022-12-17T13:30:19;2.49;71.55
71206;SHT31;58935;54.498;18.544;2022-12-17T13:33:00;2.47;71.24
71206;SHT31;58935;54.498;18.544;2022-12-17T13:41:16;2.34;71.06
71206;SHT31;58935;54.498;18.544;2022-12-17T13:43:47;2.28;70.89
71206;SHT31;58935;54.498;18.544;2022-12-17T13:46:22;2.19;70.88
71206;SHT31;58935;54.498;18.544;2022-12-17T13:48:50;2.13;71.02
71206;SHT31;58935;54.498;18.544;2022-12-17T13:51:22;2.12;71.12
71206;SHT31;58935;54.498;18.544;2022-12-17T13:53:51;2.14;71.08
71206;SHT31;58935;54.498;18.544;2022-12-17T13:56:22;2.17;71.15
71206;SHT31;58935;54.498;18.544;2022-12-17T13:58:52;2.20;71.07
71206;SHT31;58935;54.498;18.544;2022-12-17T14:01:19;2.22;70.81
71206;SHT31;58935;54.498;18.544;2022-12-17T14:06:14;2.07;70.72
71206;SHT31;58935;54.498;18.544;2022-12-17T14:08:39;2.03;70.74
71206;SHT31;58935;54.498;18.544;2022-12-17T14:11:06;1.97;70.56
71206;SHT31;58935;54.498;18.544;2022-12-17T14:13:35;1.88;70.70
71206;SHT31;58935;54.498;18.544;2022-12-17T14:16:01;1.78;70.89
71206;SHT31;58935;54.498;18.544;2022-12-17T14:18:26;1.73;71.21
71206;SHT31;58935;54.498;18.544;2022-12-17T14:20:51;1.73;71.33
71206;SHT31;58935;54.498;18.544;2022-12-17T14:23:28;1.73;71.46
71206;SHT31;58935;54.498;18.544;2022-12-17T14:25:55;1.70;71.53
71206;SHT31;58935;54.498;18.544;2022-12-17T14:28:22;1.67;71.64
71206;SHT31;58935;54.498;18.544;2022-12-17T14:33:29;1.61;71.74
71206;SHT31;58935;54.498;18.544;2022-12-17T14:35:57;1.53;71.63
71206;SHT31;58935;54.498;18.544;2022-12-17T14:38:24;1.45;71.69
71206;SHT31;58935;54.498;18.544;2022-12-17T14:40:51;1.34;71.91
71206;SHT31;58935;54.498;18.544;2022-12-17T14:43:16;1.30;72.24
71206;SHT31;58935;54.498;18.544;2022-12-17T14:45:50;1.31;72.32
71206;SHT31;58935;54.498;18.544;2022-12-17T14:48:23;1.31;72.41
71206;SHT31;58935;54.498;18.544;2022-12-17T14:53:40;1.39;72.28
71206;SHT31;58935;54.498;18.544;2022-12-17T14:56:16;1.41;72.12
71206;SHT31;58935;54.498;18.544;2022-12-17T14:58:46;1.42;71.88
71206;SHT31;58935;54.498;18.544;2022-12-17T15:01:12;1.42;71.93
71206;SHT31;58935;54.498;18.544;2022-12-17T15:03:39;1.43;71.99
71206;SHT31;58935;54.498;18.544;2022-12-17T15:06:07;1.44;71.99
71206;SHT31;58935;54.498;18.544;2022-12-17T15:08:37;1.45;71.80
71206;SHT31;58935;54.498;18.544;2022-12-17T15:11:04;1.44;71.82
71206;SHT31;58935;54.498;18.544;2022-12-17T15:13:32;1.42;71.71
71206;SHT31;58935;54.498;18.544;2022-12-17T15:15:57;1.35;71.58
71206;SHT31;58935;54.498;18.544;2022-12-17T15:18:23;1.30;71.81
71206;SHT31;58935;54.498;18.544;2022-12-17T15:20:51;1.23;71.59
71206;SHT31;58935;54.498;18.544;2022-12-17T15:23:18;1.15;71.78
71206;SHT31;58935;54.498;18.544;2022-12-17T15:25:45;1.11;72.06
71206;SHT31;58935;54.498;18.544;2022-12-17T15:28:16;1.06;72.01
71206;SHT31;58935;54.498;18.544;2022-12-17T15:30:43;1.00;72.15
71206;SHT31;58935;54.498;18.544;2022-12-17T15:33:09;0.97;72.32
71206;SHT31;58935;54.498;18.544;2022-12-17T15:35:35;0.95;72.34
71206;SHT31;58935;54.498;18.544;2022-12-17T15:38:04;0.88;72.30
71206;SHT31;58935;54.498;18.544;2022-12-17T15:40:30;0.82;72.48
71206;SHT31;58935;54.498;18.544;2022-12-17T15:42:59;0.75;72.57
71206;SHT31;58935;54.498;18.544;2022-12-17T15:45:27;0.69;72.72
71206;SHT31;58935;54.498;18.544;2022-12-17T15:47:55;0.61;72.83
71206;SHT31;58935;54.498;18.544;2022-12-17T15:50:22;0.55;73.01
71206;SHT31;58935;54.498;18.544;2022-12-17T15:52:48;0.49;73.16
71206;SHT31;58935;54.498;18.544;2022-12-17T15:55:13;0.42;73.34
71206;SHT31;58935;54.498;18.544;2022-12-17T15:57:40;0.36;73.57
71206;SHT31;58935;54.498;18.544;2022-12-17T16:00:05;0.28;73.76
71206;SHT31;58935;54.498;18.544;2022-12-17T16:02:34;0.21;74.01
71206;SHT31;58935;54.498;18.544;2022-12-17T16:05:02;0.15;74.16
71206;SHT31;58935;54.498;18.544;2022-12-17T16:07:27;0.11;74.31
71206;SHT31;58935;54.498;18.544;2022-12-17T16:09:53;0.06;74.45
71206;SHT31;58935;54.498;18.544;2022-12-17T16:12:18;0.01;74.63
71206;SHT31;58935;54.498;18.544;2022-12-17T16:14:43;-0.04;74.81
71206;SHT31;58935;54.498;18.544;2022-12-17T16:17:08;-0.09;74.97
71206;SHT31;58935;54.498;18.544;2022-12-17T16:19:34;-0.15;75.18
71206;SHT31;58935;54.498;18.544;2022-12-17T16:21:59;-0.17;75.33
71206;SHT31;58935;54.498;18.544;2022-12-17T16:24:25;-0.19;75.38
71206;SHT31;58935;54.498;18.544;2022-12-17T16:26:50;-0.21;75.54
71206;SHT31;58935;54.498;18.544;2022-12-17T16:29:15;-0.23;75.52
71206;SHT31;58935;54.498;18.544;2022-12-17T16:31:40;-0.21;75.58
71206;SHT31;58935;54.498;18.544;2022-12-17T16:34:07;-0.18;75.53
71206;SHT31;58935;54.498;18.544;2022-12-17T16:36:34;-0.17;75.47
71206;SHT31;58935;54.498;18.544;2022-12-17T16:39:00;-0.17;75.50
71206;SHT31;58935;54.498;18.544;2022-12-17T16:41:25;-0.15;75.52
71206;SHT31;58935;54.498;18.544;2022-12-17T16:43:51;-0.13;75.47
71206;SHT31;58935;54.498;18.544;2022-12-17T16:48:48;-0.09;75.56
71206;SHT31;58935;54.498;18.544;2022-12-17T16:51:15;-0.03;75.50
71206;SHT31;58935;54.498;18.544;2022-12-17T16:53:42;0.01;75.43
71206;SHT31;58935;54.498;18.544;2022-12-17T16:56:13;0.05;75.34